createdAt,value
2019-06-01T00:02:19.822Z,99.90
2019-06-01T00:04:50.337Z,99.90
2019-06-01T00:07:20.838Z,99.90
2019-06-01T00:09:51.416Z,99.90
2019-06-01T00:12:21.954Z,99.90
2019-06-01T00:14:53.318Z,99.90
2019-06-01T00:17:23.811Z,99.90
2019-06-01T00:19:54.273Z,99.90
2019-06-01T00:22:24.781Z,99.90
2019-06-01T00:24:55.261Z,99.90
2019-06-01T00:27:25.758Z,99.90
2019-06-01T00:29:56.286Z,99.90
2019-06-01T00:32:26.732Z,99.90
2019-06-01T00:34:57.238Z,99.90
2019-06-01T00:37:27.609Z,99.90
2019-06-01T00:39:58.215Z,99.90
2019-06-01T00:42:28.817Z,99.90
2019-06-01T00:44:59.313Z,99.90
2019-06-01T00:47:29.752Z,99.90
2019-06-01T00:50:04.029Z,99.90
2019-06-01T00:52:34.581Z,99.90
2019-06-01T00:55:06.417Z,99.90
2019-06-01T00:57:37.086Z,99.90
2019-06-01T01:00:09.052Z,99.90
2019-06-01T01:02:39.599Z,99.90
2019-06-01T01:05:18.558Z,99.90
2019-06-01T01:07:49.096Z,99.90
2019-06-01T01:10:22.006Z,99.90
2019-06-01T01:13:15.913Z,99.90
2019-06-01T01:15:47.396Z,99.90
2019-06-01T01:18:17.948Z,99.90
2019-06-01T01:20:48.388Z,99.90
2019-06-01T01:23:19.022Z,99.90
2019-06-01T01:25:50.503Z,99.90
2019-06-01T01:28:23.882Z,99.90
2019-06-01T01:31:06.587Z,99.90
2019-06-01T01:33:25.617Z,99.90
2019-06-01T01:35:56.261Z,99.90
2019-06-01T01:38:26.813Z,99.90
2019-06-01T01:40:59.354Z,99.90
2019-06-01T01:43:29.441Z,99.90
2019-06-01T01:45:59.947Z,99.90
2019-06-01T01:48:30.432Z,99.90
2019-06-01T01:51:01.066Z,99.90
2019-06-01T01:53:31.508Z,99.90
2019-06-01T01:56:01.941Z,99.90
2019-06-01T01:58:32.696Z,99.90
2019-06-01T02:01:20.851Z,99.90
2019-06-01T02:03:35.802Z,99.90
2019-06-01T02:06:06.470Z,99.90
2019-06-01T02:08:37.976Z,99.90
2019-06-01T02:11:08.462Z,99.90
2019-06-01T02:13:39.035Z,99.90
2019-06-01T02:16:10.422Z,99.90
2019-06-01T02:18:42.815Z,99.90
2019-06-01T02:21:13.255Z,99.90
2019-06-01T02:23:43.687Z,99.90
2019-06-01T02:26:14.399Z,99.90
2019-06-01T02:28:45.260Z,99.90
2019-06-01T02:31:15.899Z,99.90
2019-06-01T02:33:46.703Z,99.90
2019-06-01T02:36:17.215Z,99.90
2019-06-01T02:38:47.605Z,99.90
2019-06-01T02:41:18.161Z,99.90
2019-06-01T02:43:48.649Z,99.90
2019-06-01T02:46:19.191Z,99.90
2019-06-01T02:48:49.751Z,99.90
2019-06-01T02:51:20.321Z,99.90
2019-06-01T02:53:50.791Z,99.90
2019-06-01T02:56:21.343Z,99.90
2019-06-01T02:58:51.820Z,99.90
2019-06-01T03:01:55.935Z,99.90
2019-06-01T03:04:13.071Z,99.90
2019-06-01T03:06:45.011Z,99.90
2019-06-01T03:09:15.626Z,99.90
2019-06-01T03:11:50.254Z,99.90
2019-06-01T03:14:24.708Z,99.90
2019-06-01T03:17:00.022Z,99.90
2019-06-01T03:19:33.558Z,99.90
2019-06-01T03:22:08.200Z,99.90
2019-06-01T03:24:39.193Z,99.90
2019-06-01T03:27:13.343Z,99.90
2019-06-01T03:29:48.393Z,99.90
2019-06-01T03:32:34.115Z,99.90
2019-06-01T03:34:51.364Z,99.90
2019-06-01T03:37:21.981Z,99.90
2019-06-01T03:39:52.806Z,99.90
2019-06-01T03:42:24.100Z,99.90
2019-06-01T03:44:54.825Z,99.90
2019-06-01T03:47:25.462Z,99.90
2019-06-01T03:49:56.111Z,99.90
2019-06-01T03:52:27.500Z,99.90
2019-06-01T03:54:58.039Z,99.90
2019-06-01T03:57:28.485Z,99.90
2019-06-01T04:00:04.955Z,99.90
2019-06-01T04:02:35.577Z,99.90
2019-06-01T04:05:07.449Z,99.90
2019-06-01T04:07:39.039Z,99.90
2019-06-01T04:10:10.163Z,99.90
2019-06-01T04:12:40.622Z,99.90
2019-06-01T04:15:21.621Z,99.90
2019-06-01T04:17:54.321Z,99.90
2019-06-01T04:20:24.871Z,99.90
2019-06-01T04:22:55.333Z,99.90
2019-06-01T04:25:26.742Z,99.90
2019-06-01T04:27:57.547Z,99.90
2019-06-01T04:30:29.173Z,99.90
2019-06-01T04:32:59.956Z,99.90
2019-06-01T04:35:30.442Z,99.90
2019-06-01T04:38:00.974Z,99.90
2019-06-01T04:40:31.721Z,99.90
2019-06-01T04:43:03.638Z,99.90
2019-06-01T04:45:34.959Z,99.90
2019-06-01T04:48:06.391Z,99.90
2019-06-01T04:50:36.964Z,99.90
2019-06-01T04:53:11.883Z,99.90
2019-06-01T04:55:42.741Z,99.90
2019-06-01T04:58:13.326Z,99.90
2019-06-01T05:00:43.799Z,99.90
2019-06-01T05:03:15.408Z,99.90
2019-06-01T05:05:46.637Z,99.90
2019-06-01T05:08:17.181Z,99.90
2019-06-01T05:10:47.731Z,99.90
2019-06-01T05:13:18.423Z,99.90
2019-06-01T05:15:48.869Z,99.90
2019-06-01T05:18:20.279Z,99.90
2019-06-01T05:20:50.899Z,99.90
2019-06-01T05:23:21.331Z,99.90
2019-06-01T05:25:53.626Z,99.90
2019-06-01T05:28:24.133Z,99.90
2019-06-01T05:30:55.665Z,99.90
2019-06-01T05:33:36.911Z,99.90
2019-06-01T05:35:58.448Z,99.90
2019-06-01T05:38:28.932Z,99.90
2019-06-01T05:41:01.215Z,99.90
2019-06-01T05:43:31.718Z,99.90
2019-06-01T05:46:02.266Z,98.20
2019-06-01T05:48:32.701Z,96.80
2019-06-01T05:51:03.249Z,95.60
2019-06-01T05:53:33.854Z,94.70
2019-06-01T05:56:04.532Z,93.10
2019-06-01T05:58:35.117Z,91.30
2019-06-01T06:01:05.834Z,89.10
2019-06-01T06:03:43.606Z,87.10
2019-06-01T06:06:14.166Z,88.20
2019-06-01T06:08:44.645Z,85.80
2019-06-01T06:11:15.129Z,83.10
2019-06-01T06:13:49.643Z,84.70
2019-06-01T06:16:20.856Z,83.90
2019-06-01T06:18:53.363Z,80.20
2019-06-01T06:21:23.836Z,82.60
2019-06-01T06:23:55.243Z,82.80
2019-06-01T06:26:25.871Z,79.10
2019-06-01T06:28:56.362Z,79.90
2019-06-01T06:31:26.987Z,80.50
2019-06-01T06:33:57.826Z,76.70
2019-06-01T06:36:28.299Z,71.90
2019-06-01T06:38:58.950Z,70.80
2019-06-01T06:41:29.496Z,70.90
2019-06-01T06:44:01.157Z,68.90
2019-06-01T06:46:31.719Z,68.30
2019-06-01T06:49:05.106Z,67.20
2019-06-01T06:51:35.590Z,67.40
2019-06-01T06:54:06.316Z,68.10
2019-06-01T06:56:36.909Z,63.60
2019-06-01T06:59:11.163Z,64.30
2019-06-01T07:01:41.757Z,64.30
2019-06-01T07:04:13.306Z,62.00
2019-06-01T07:06:44.116Z,61.50
2019-06-01T07:09:14.535Z,62.20
2019-06-01T07:11:46.685Z,63.60
2019-06-01T07:14:17.220Z,62.00
2019-06-01T07:16:47.786Z,62.30
2019-06-01T07:19:19.413Z,63.50
2019-06-01T07:21:50.223Z,60.60
2019-06-01T07:24:21.741Z,59.80
2019-06-01T07:26:52.381Z,62.20
2019-06-01T07:29:24.500Z,61.30
2019-06-01T07:31:55.973Z,61.50
2019-06-01T07:34:37.855Z,61.80
2019-06-01T07:36:59.593Z,59.80
2019-06-01T07:39:30.162Z,60.70
2019-06-01T07:42:00.687Z,59.00
2019-06-01T07:44:33.133Z,61.30
2019-06-01T07:47:03.910Z,59.20
2019-06-01T07:49:34.635Z,61.20
2019-06-01T07:52:12.631Z,59.50
2019-06-01T07:54:37.789Z,58.70
2019-06-01T07:57:08.361Z,58.60
2019-06-01T07:59:39.292Z,57.80
2019-06-01T08:02:09.915Z,56.80
2019-06-01T08:07:15.666Z,57.30
2019-06-01T08:09:46.168Z,57.20
2019-06-01T08:12:17.077Z,57.20
2019-06-01T08:14:47.578Z,57.90
2019-06-01T08:17:18.219Z,57.80
2019-06-01T08:19:52.063Z,56.80
2019-06-01T08:22:25.989Z,56.80
2019-06-01T08:24:58.647Z,56.60
2019-06-01T08:27:30.533Z,57.30
2019-06-01T08:30:01.277Z,56.30
2019-06-01T08:32:32.826Z,57.50
2019-06-01T08:35:09.050Z,58.10
2019-06-01T08:37:37.138Z,58.10
2019-06-01T08:40:08.874Z,57.40
2019-06-01T08:42:39.529Z,56.40
2019-06-01T08:45:10.752Z,57.00
2019-06-01T08:47:41.243Z,57.40
2019-06-01T08:50:12.966Z,57.70
2019-06-01T08:52:43.713Z,57.60
2019-06-01T08:55:14.988Z,58.60
2019-06-01T08:57:45.462Z,58.20
2019-06-01T09:00:16.515Z,58.40
2019-06-01T09:02:47.180Z,59.70
2019-06-01T09:05:24.315Z,58.10
2019-06-01T09:07:50.005Z,57.90
2019-06-01T09:10:20.539Z,59.20
2019-06-01T09:12:51.661Z,59.00
2019-06-01T09:15:22.627Z,58.60
2019-06-01T09:17:53.711Z,58.20
2019-06-01T09:20:25.814Z,57.40
2019-06-01T09:22:56.280Z,56.90
2019-06-01T09:25:27.525Z,59.20
2019-06-01T09:27:59.809Z,57.60
2019-06-01T09:30:31.976Z,58.10
2019-06-01T09:33:03.291Z,58.60
2019-06-01T09:35:52.501Z,57.50
2019-06-01T09:38:06.385Z,57.50
2019-06-01T09:40:37.365Z,57.80
2019-06-01T09:43:08.124Z,59.70
2019-06-01T09:45:41.591Z,60.60
2019-06-01T09:48:12.335Z,60.40
2019-06-01T09:50:43.752Z,59.70
2019-06-01T09:53:14.294Z,60.60
2019-06-01T09:55:44.814Z,60.70
2019-06-01T09:58:15.257Z,60.70
2019-06-01T10:00:46.771Z,61.90
2019-06-01T10:03:17.661Z,61.50
2019-06-01T10:06:01.254Z,61.90
2019-06-01T10:08:20.419Z,62.80
2019-06-01T10:10:51.015Z,63.30
2019-06-01T10:13:21.578Z,63.40
2019-06-01T10:15:52.232Z,63.40
2019-06-01T10:18:26.759Z,64.10
2019-06-01T10:20:56.018Z,63.30
2019-06-01T10:23:26.507Z,65.30
2019-06-01T10:25:57.011Z,63.10
2019-06-01T10:28:27.830Z,63.40
2019-06-01T10:30:58.414Z,64.40
2019-06-01T10:33:30.647Z,64.20
2019-06-01T10:36:19.261Z,65.20
2019-06-01T10:38:35.162Z,64.90
2019-06-01T10:41:05.896Z,65.50
2019-06-01T10:43:37.614Z,63.00
2019-06-01T10:46:08.406Z,63.30
2019-06-01T10:48:40.120Z,64.20
2019-06-01T10:51:10.676Z,63.40
2019-06-01T10:53:43.633Z,64.50
2019-06-01T10:56:14.068Z,67.40
2019-06-01T10:58:59.313Z,66.80
2019-06-01T11:01:17.522Z,66.20
2019-06-01T11:03:48.099Z,66.80
2019-06-01T11:06:18.713Z,64.40
2019-06-01T11:08:49.451Z,64.60
2019-06-01T11:11:20.083Z,68.20
2019-06-01T11:13:50.570Z,67.30
2019-06-01T11:16:21.215Z,67.70
2019-06-01T11:18:51.748Z,67.80
2019-06-01T11:21:25.569Z,68.90
2019-06-01T11:23:56.208Z,68.00
2019-06-01T11:26:27.070Z,66.00
2019-06-01T11:29:00.214Z,67.10
2019-06-01T11:31:33.808Z,67.40
2019-06-01T11:34:04.543Z,67.30
2019-06-01T11:36:36.150Z,68.30
2019-06-01T11:39:08.317Z,67.10
2019-06-01T11:41:40.637Z,67.50
2019-06-01T11:44:11.429Z,69.80
2019-06-01T11:46:42.995Z,69.20
2019-06-01T11:49:13.613Z,70.20
2019-06-01T11:51:45.266Z,67.50
2019-06-01T11:54:16.025Z,68.60
2019-06-01T11:56:47.092Z,68.80
2019-06-01T11:59:21.101Z,66.00
2019-06-01T12:01:50.617Z,65.60
2019-06-01T12:04:21.134Z,66.30
2019-06-01T12:06:53.276Z,65.90
2019-06-01T12:09:23.569Z,66.00
2019-06-01T12:11:54.039Z,65.90
2019-06-01T12:14:24.594Z,67.20
2019-06-01T12:16:55.189Z,66.80
2019-06-01T12:19:25.730Z,67.50
2019-06-01T12:21:58.575Z,68.20
2019-06-01T12:24:29.350Z,68.70
2019-06-01T12:26:59.852Z,68.90
2019-06-01T12:29:30.391Z,69.10
2019-06-01T12:32:01.273Z,72.30
2019-06-01T12:34:32.160Z,70.80
2019-06-01T12:37:02.716Z,72.00
2019-06-01T12:39:33.704Z,73.50
2019-06-01T12:42:07.329Z,74.00
2019-06-01T12:44:39.757Z,73.40
2019-06-01T12:47:10.436Z,74.60
2019-06-01T12:49:42.179Z,76.00
2019-06-01T12:52:13.176Z,73.60
2019-06-01T12:54:44.662Z,76.00
2019-06-01T12:57:15.257Z,74.90
2019-06-01T12:59:47.484Z,75.20
2019-06-01T13:02:19.217Z,75.60
2019-06-01T13:04:50.880Z,74.10
2019-06-01T13:07:21.469Z,74.30
2019-06-01T13:09:52.882Z,74.10
2019-06-01T13:12:23.598Z,74.80
2019-06-01T13:14:54.123Z,76.60
2019-06-01T13:17:25.789Z,74.40
2019-06-01T13:19:56.305Z,72.80
2019-06-01T13:22:28.969Z,70.30
2019-06-01T13:24:59.462Z,70.00
2019-06-01T13:27:30.088Z,69.10
2019-06-01T13:30:00.644Z,70.10
2019-06-01T13:32:31.113Z,71.60
2019-06-01T13:35:01.670Z,72.40
2019-06-01T13:37:32.223Z,74.50
2019-06-01T13:40:02.873Z,75.90
2019-06-01T13:42:34.324Z,77.30
2019-06-01T13:45:07.567Z,78.50
2019-06-01T13:47:38.877Z,79.30
2019-06-01T13:50:10.427Z,79.50
2019-06-01T13:52:41.524Z,80.30
2019-06-01T13:55:12.937Z,81.40
2019-06-01T13:57:50.336Z,79.40
2019-06-01T14:00:30.429Z,79.60
2019-06-01T14:02:57.534Z,79.10
2019-06-01T14:05:27.041Z,78.30
2019-06-01T14:07:58.005Z,77.50
2019-06-01T14:10:28.553Z,77.50
2019-06-01T14:16:01.066Z,76.30
2019-06-01T14:18:33.286Z,75.40
2019-06-01T14:21:03.810Z,75.40
2019-06-01T14:23:36.143Z,75.70
2019-06-01T14:26:06.708Z,75.50
2019-06-01T14:28:38.378Z,75.20
2019-06-01T14:31:08.777Z,75.20
2019-06-01T14:33:39.209Z,76.20
2019-06-01T14:36:09.642Z,77.10
2019-06-01T14:38:46.941Z,76.40
2019-06-01T14:41:14.796Z,76.80
2019-06-01T14:43:45.422Z,77.30
2019-06-01T14:46:15.995Z,78.10
2019-06-01T14:48:47.409Z,77.90
2019-06-01T14:51:18.123Z,77.60
2019-06-01T14:53:49.526Z,77.30
2019-06-01T14:56:20.069Z,77.20
2019-06-01T14:58:51.923Z,75.60
2019-06-01T15:01:31.873Z,75.00
2019-06-01T15:03:56.521Z,75.10
2019-06-01T15:06:28.366Z,75.30
2019-06-01T15:09:15.258Z,76.70
2019-06-01T15:11:35.436Z,78.10
2019-06-01T15:14:06.624Z,78.90
2019-06-01T15:16:37.500Z,78.80
2019-06-01T15:19:08.028Z,79.00
2019-06-01T15:21:42.435Z,79.80
2019-06-01T15:24:14.203Z,80.00
2019-06-01T15:26:45.497Z,80.50
2019-06-01T15:29:16.056Z,81.00
2019-06-01T15:31:51.144Z,81.40
2019-06-01T15:34:23.123Z,82.90
2019-06-01T15:36:57.694Z,83.00
2019-06-01T15:39:25.863Z,83.50
2019-06-01T15:41:57.119Z,84.20
2019-06-01T15:44:29.359Z,84.40
2019-06-01T15:46:59.887Z,84.90
2019-06-01T15:49:30.552Z,85.90
2019-06-01T15:52:02.077Z,85.10
2019-06-01T15:54:32.642Z,85.80
2019-06-01T15:57:03.124Z,86.20
2019-06-01T15:59:33.666Z,86.00
2019-06-01T16:02:04.296Z,86.70
2019-06-01T16:04:34.799Z,87.30
2019-06-01T16:07:05.458Z,87.40
2019-06-01T16:09:43.185Z,85.40
2019-06-01T16:12:13.082Z,84.10
2019-06-01T16:14:43.576Z,81.90
2019-06-01T16:17:15.226Z,82.30
2019-06-01T16:19:45.668Z,81.80
2019-06-01T16:22:16.083Z,82.70
2019-06-01T16:24:48.645Z,83.80
2019-06-01T16:27:19.583Z,84.00
2019-06-01T16:29:50.076Z,85.00
2019-06-01T16:32:21.294Z,86.70
2019-06-01T16:34:51.802Z,88.80
2019-06-01T16:37:25.230Z,90.20
2019-06-01T16:40:01.762Z,90.80
2019-06-01T16:42:27.847Z,91.30
2019-06-01T16:44:59.399Z,92.10
2019-06-01T16:47:31.816Z,92.60
2019-06-01T16:50:02.206Z,93.10
2019-06-01T16:52:32.691Z,93.20
2019-06-01T16:55:04.980Z,93.90
2019-06-01T16:57:35.657Z,94.60
2019-06-01T17:00:10.329Z,95.20
2019-06-01T17:02:41.325Z,96.00
2019-06-01T17:05:12.985Z,96.40
2019-06-01T17:07:43.485Z,97.30
2019-06-01T17:10:25.801Z,98.10
2019-06-01T17:12:48.612Z,99.40
2019-06-01T17:15:19.775Z,99.90
2019-06-01T17:17:50.384Z,99.90
2019-06-01T17:20:52.312Z,99.90
2019-06-01T17:23:27.499Z,99.90
2019-06-01T17:25:56.041Z,99.90
2019-06-01T17:28:26.569Z,99.90
2019-06-01T17:30:58.478Z,99.90
2019-06-01T17:33:29.255Z,99.90
2019-06-01T17:36:03.256Z,99.90
2019-06-01T17:38:33.902Z,99.90
2019-06-01T17:41:04.558Z,99.90
2019-06-01T17:43:35.172Z,99.90
2019-06-01T17:46:05.827Z,99.90
2019-06-01T17:48:36.444Z,99.90
2019-06-01T17:51:07.145Z,99.90
2019-06-01T17:53:37.788Z,99.90
2019-06-01T17:56:08.286Z,99.90
2019-06-01T17:58:38.819Z,99.90
2019-06-01T18:01:09.922Z,99.90
2019-06-01T18:03:40.878Z,99.90
2019-06-01T18:06:12.897Z,99.90
2019-06-01T18:08:43.594Z,99.90
2019-06-01T18:11:14.197Z,99.90
2019-06-01T18:13:44.746Z,99.90
2019-06-01T18:16:15.707Z,99.90
2019-06-01T18:18:46.250Z,99.90
2019-06-01T18:21:17.496Z,99.90
2019-06-01T18:23:49.295Z,99.90
2019-06-01T18:26:22.041Z,99.90
2019-06-01T18:28:52.604Z,99.90
2019-06-01T18:31:23.272Z,99.90
2019-06-01T18:33:54.123Z,99.90
2019-06-01T18:36:24.740Z,99.90
2019-06-01T18:38:55.947Z,99.90
2019-06-01T18:41:26.478Z,99.90
2019-06-01T18:43:57.110Z,99.90
2019-06-01T18:46:28.059Z,99.90
2019-06-01T18:48:58.607Z,99.90
2019-06-01T18:51:29.266Z,99.90
2019-06-01T18:54:00.220Z,99.90
2019-06-01T18:56:30.675Z,99.90
2019-06-01T18:59:01.158Z,99.90
2019-06-01T19:01:31.726Z,99.90
2019-06-01T19:04:07.519Z,99.90
2019-06-01T19:06:38.657Z,99.90
2019-06-01T19:09:09.748Z,99.90
2019-06-01T19:11:40.329Z,99.90
2019-06-01T19:14:11.880Z,99.90
2019-06-01T19:16:46.206Z,99.90
2019-06-01T19:19:16.814Z,99.90
2019-06-01T19:21:47.643Z,99.90
2019-06-01T19:24:18.195Z,99.90
2019-06-01T19:26:49.718Z,99.90
2019-06-01T19:29:20.141Z,99.90
2019-06-01T19:31:50.998Z,99.90
2019-06-01T19:34:22.207Z,99.90
2019-06-01T19:36:54.845Z,99.90
2019-06-01T19:39:25.752Z,99.90
2019-06-01T19:41:56.232Z,99.90
2019-06-01T19:44:26.795Z,99.90
2019-06-01T19:46:57.680Z,99.90
2019-06-01T19:49:28.349Z,99.90
2019-06-01T19:51:58.837Z,99.90
2019-06-01T19:54:29.733Z,99.90
2019-06-01T19:57:00.236Z,99.90
2019-06-01T19:59:30.782Z,99.90
2019-06-01T20:02:01.392Z,99.90
2019-06-01T20:04:32.140Z,99.90
2019-06-01T20:07:04.498Z,99.90
2019-06-01T20:09:34.940Z,99.90
2019-06-01T20:12:11.572Z,99.90
2019-06-01T20:14:38.386Z,99.90
2019-06-01T20:17:09.541Z,99.90
2019-06-01T20:19:40.552Z,99.90
2019-06-01T20:22:11.044Z,99.90
2019-06-01T20:24:41.660Z,99.90
2019-06-01T20:27:13.525Z,99.90
2019-06-01T20:29:44.959Z,99.90
2019-06-01T20:32:16.042Z,99.90
2019-06-01T20:34:46.600Z,99.90
2019-06-01T20:37:18.103Z,99.90
2019-06-01T20:39:50.323Z,99.90
2019-06-01T20:42:30.223Z,99.90
2019-06-01T20:44:53.986Z,99.90
2019-06-01T20:47:24.493Z,99.90
2019-06-01T20:49:54.961Z,99.90
2019-06-01T20:52:27.478Z,99.90
2019-06-01T20:54:57.923Z,99.90
2019-06-01T20:57:28.443Z,99.90
2019-06-01T20:59:58.998Z,99.90
2019-06-01T21:02:29.549Z,99.90
2019-06-01T21:05:00.045Z,99.90
2019-06-01T21:07:31.059Z,99.90
2019-06-01T21:10:02.815Z,99.90
2019-06-01T21:12:44.604Z,99.90
2019-06-01T21:15:06.951Z,99.90
2019-06-01T21:17:37.878Z,99.90
2019-06-01T21:20:10.214Z,99.90
2019-06-01T21:22:41.384Z,99.90
2019-06-01T21:25:12.434Z,99.90
2019-06-01T21:27:43.902Z,99.90
2019-06-01T21:30:16.896Z,99.90
2019-06-01T21:32:47.673Z,99.90
2019-06-01T21:35:19.465Z,99.90
2019-06-01T21:37:50.260Z,99.90
2019-06-01T21:40:21.513Z,99.90
2019-06-01T21:43:03.141Z,99.90
2019-06-01T21:45:25.809Z,99.90
2019-06-01T21:47:56.411Z,99.90
2019-06-01T21:50:27.002Z,99.90
2019-06-01T21:52:57.548Z,99.90
2019-06-01T21:55:28.144Z,99.90
2019-06-01T21:57:58.865Z,99.90
2019-06-01T22:00:36.099Z,99.90
2019-06-01T22:03:09.125Z,99.90
2019-06-01T22:05:39.834Z,99.90
2019-06-01T22:08:10.670Z,99.90
2019-06-01T22:10:41.356Z,99.90
2019-06-01T22:13:18.849Z,99.90
2019-06-01T22:15:44.383Z,99.90
2019-06-01T22:18:15.032Z,99.90
2019-06-01T22:20:45.519Z,99.90
2019-06-01T22:23:16.020Z,99.90
2019-06-01T22:25:46.581Z,99.90
2019-06-01T22:28:18.198Z,99.90
2019-06-01T22:30:48.719Z,99.90
2019-06-01T22:33:20.117Z,99.90
2019-06-01T22:35:51.590Z,99.90
2019-06-01T22:38:22.095Z,99.90
2019-06-01T22:40:52.680Z,99.90
2019-06-01T22:43:41.358Z,99.90
2019-06-01T22:45:55.636Z,99.90
2019-06-01T22:48:26.672Z,99.90
2019-06-01T22:50:57.349Z,99.90
2019-06-01T22:53:28.373Z,99.90
2019-06-01T22:55:58.944Z,99.90
2019-06-01T22:58:29.679Z,99.90
2019-06-01T23:01:00.336Z,99.90
2019-06-01T23:03:32.052Z,99.90
2019-06-01T23:06:02.905Z,99.90
2019-06-01T23:08:33.471Z,99.90
2019-06-01T23:11:04.118Z,99.90
2019-06-01T23:13:34.629Z,99.90
2019-06-01T23:16:05.362Z,99.90
2019-06-01T23:18:35.975Z,99.90
2019-06-01T23:21:06.636Z,99.90
2019-06-01T23:23:37.305Z,99.90
2019-06-01T23:26:07.987Z,99.90
2019-06-01T23:28:39.440Z,99.90
2019-06-01T23:31:09.980Z,99.90
2019-06-01T23:33:40.577Z,99.90
2019-06-01T23:36:11.167Z,99.90
2019-06-01T23:38:41.752Z,99.90
2019-06-01T23:41:12.233Z,99.90
2019-06-01T23:43:42.909Z,99.90
2019-06-01T23:46:13.424Z,99.90
2019-06-01T23:48:44.706Z,99.90
2019-06-01T23:51:15.191Z,99.90
2019-06-01T23:53:45.782Z,99.90
2019-06-01T23:56:16.243Z,99.90
2019-06-01T23:58:46.828Z,99.90
